sensor_id;sensor_type;location;lat;lon;timestamp;temperature;humidity
14709;DHT22;7445;50.774;4.944;2022-09-09T06:45:26;16.70;99.90
14709;DHT22;7445;50.774;4.944;2022-09-09T06:47:55;16.70;99.90
14709;DHT22;7445;50.774;4.944;2022-09-09T06:50:21;16.80;99.90
14709;DHT22;7445;50.774;4.944;2022-09-09T06:52:48;16.80;99.90
14709;DHT22;7445;50.774;4.944;2022-09-09T06:55:15;16.80;99.90
14709;DHT22;7445;50.774;4.944;2022-09-09T06:57:48;16.90;99.90
14709;DHT22;7445;50.774;4.944;2022-09-09T07:00:15;17.10;99.90
14709;DHT22;7445;50.774;4.944;2022-09-09T07:02:43;17.20;99.90
14709;DHT22;7445;50.774;4.944;2022-09-09T07:05:12;17.30;99.90
14709;DHT22;7445;50.774;4.944;2022-09-09T07:07:38;17.40;99.90
14709;DHT22;7445;50.774;4.944;2022-09-09T07:10:04;17.50;99.90
14709;DHT22;7445;50.774;4.944;2022-09-09T07:12:30;17.50;99.90
14709;DHT22;7445;50.774;4.944;2022-09-09T07:14:57;17.60;99.90
14709;DHT22;7445;50.774;4.944;2022-09-09T07:17:22;17.60;99.90
14709;DHT22;7445;50.774;4.944;2022-09-09T07:19:48;17.70;99.90
14709;DHT22;7445;50.774;4.944;2022-09-09T07:22:20;17.80;99.90
14709;DHT22;7445;50.774;4.944;2022-09-09T07:24:48;17.70;99.90
14709;DHT22;7445;50.774;4.944;2022-09-09T07:27:15;17.70;99.90
14709;DHT22;7445;50.774;4.944;2022-09-09T07:30:12;17.60;99.90
14709;DHT22;7445;50.774;4.944;2022-09-09T07:32:39;17.50;99.90
14709;DHT22;7445;50.774;4.944;2022-09-09T07:35:05;17.50;99.90
14709;DHT22;7445;50.774;4.944;2022-09-09T07:37:53;17.50;99.90
14709;DHT22;7445;50.774;4.944;2022-09-09T07:40:24;17.60;99.90
14709;DHT22;7445;50.774;4.944;2022-09-09T07:42:57;17.70;99.90
14709;DHT22;7445;50.774;4.944;2022-09-09T07:45:29;17.60;99.90
14709;DHT22;7445;50.774;4.944;2022-09-09T07:47:58;17.40;99.90
14709;DHT22;7445;50.774;4.944;2022-09-09T07:50:23;17.40;99.90
14709;DHT22;7445;50.774;4.944;2022-09-09T07:52:52;17.40;99.90
14709;DHT22;7445;50.774;4.944;2022-09-09T07:55:19;17.30;99.90
14709;DHT22;7445;50.774;4.944;2022-09-09T07:57:58;17.40;99.90
14709;DHT22;7445;50.774;4.944;2022-09-09T08:00:24;17.30;99.90
14709;DHT22;7445;50.774;4.944;2022-09-09T08:02:50;17.20;99.90
14709;DHT22;7445;50.774;4.944;2022-09-09T08:05:17;17.30;99.90
14709;DHT22;7445;50.774;4.944;2022-09-09T08:07:43;17.40;99.90
14709;DHT22;7445;50.774;4.944;2022-09-09T08:10:09;17.50;99.90
14709;DHT22;7445;50.774;4.944;2022-09-09T08:12:38;17.50;99.90
14709;DHT22;7445;50.774;4.944;2022-09-09T08:15:05;17.60;99.90
14709;DHT22;7445;50.774;4.944;2022-09-09T08:17:31;17.60;99.90
14709;DHT22;7445;50.774;4.944;2022-09-09T08:19:58;17.60;99.90
14709;DHT22;7445;50.774;4.944;2022-09-09T08:22:29;17.60;99.90
14709;DHT22;7445;50.774;4.944;2022-09-09T08:24:55;17.60;99.90
14709;DHT22;7445;50.774;4.944;2022-09-09T08:27:21;17.70;99.90
14709;DHT22;7445;50.774;4.944;2022-09-09T08:29:48;17.60;99.90
14709;DHT22;7445;50.774;4.944;2022-09-09T08:32:13;17.70;99.90
14709;DHT22;7445;50.774;4.944;2022-09-09T08:34:39;17.70;99.90
14709;DHT22;7445;50.774;4.944;2022-09-09T08:37:06;17.80;99.90
14709;DHT22;7445;50.774;4.944;2022-09-09T08:39:32;18.00;99.90
14709;DHT22;7445;50.774;4.944;2022-09-09T08:50:31;18.40;99.90
14709;DHT22;7445;50.774;4.944;2022-09-09T08:53:28;18.70;99.90
14709;DHT22;7445;50.774;4.944;2022-09-09T08:56:21;18.70;99.90
14709;DHT22;7445;50.774;4.944;2022-09-09T08:58:52;18.70;99.90
14709;DHT22;7445;50.774;4.944;2022-09-09T09:04:02;18.70;99.90
14709;DHT22;7445;50.774;4.944;2022-09-09T09:09:11;18.80;99.90
14709;DHT22;7445;50.774;4.944;2022-09-09T09:11:45;18.90;99.90
14709;DHT22;7445;50.774;4.944;2022-09-09T09:14:28;19.00;99.90
14709;DHT22;7445;50.774;4.944;2022-09-09T09:17:10;19.00;99.90
14709;DHT22;7445;50.774;4.944;2022-09-09T09:19:40;18.80;99.90
14709;DHT22;7445;50.774;4.944;2022-09-09T09:22:24;18.70;99.90
14709;DHT22;7445;50.774;4.944;2022-09-09T09:25:02;18.70;99.90
14709;DHT22;7445;50.774;4.944;2022-09-09T09:27:40;18.70;99.90
14709;DHT22;7445;50.774;4.944;2022-09-09T09:30:21;18.70;99.90
14709;DHT22;7445;50.774;4.944;2022-09-09T09:35:27;18.40;99.90
14709;DHT22;7445;50.774;4.944;2022-09-09T09:37:52;18.30;99.90
14709;DHT22;7445;50.774;4.944;2022-09-09T09:40:34;18.20;99.90
14709;DHT22;7445;50.774;4.944;2022-09-09T09:43:01;18.20;99.90
14709;DHT22;7445;50.774;4.944;2022-09-09T09:45:57;18.20;99.90
14709;DHT22;7445;50.774;4.944;2022-09-09T09:48:24;18.00;99.90
14709;DHT22;7445;50.774;4.944;2022-09-09T09:50:54;17.80;99.90
14709;DHT22;7445;50.774;4.944;2022-09-09T09:53:31;17.70;99.90
14709;DHT22;7445;50.774;4.944;2022-09-09T09:56:03;17.60;99.90
14709;DHT22;7445;50.774;4.944;2022-09-09T09:58:52;17.30;99.90
14709;DHT22;7445;50.774;4.944;2022-09-09T10:01:39;17.40;99.90
14709;DHT22;7445;50.774;4.944;2022-09-09T10:04:36;17.30;99.90
14709;DHT22;7445;50.774;4.944;2022-09-09T10:07:17;17.20;99.90
14709;DHT22;7445;50.774;4.944;2022-09-09T10:10:24;17.20;99.90
14709;DHT22;7445;50.774;4.944;2022-09-09T10:19:44;17.50;99.90
14709;DHT22;7445;50.774;4.944;2022-09-09T10:22:26;17.70;99.90
14709;DHT22;7445;50.774;4.944;2022-09-09T10:25:02;17.80;99.90
14709;DHT22;7445;50.774;4.944;2022-09-09T10:30:17;18.00;99.90
14709;DHT22;7445;50.774;4.944;2022-09-09T10:33:25;18.00;99.90
14709;DHT22;7445;50.774;4.944;2022-09-09T10:38:46;17.90;99.90
14709;DHT22;7445;50.774;4.944;2022-09-09T10:46:56;17.90;99.90
14709;DHT22;7445;50.774;4.944;2022-09-09T10:57:51;18.70;99.90
14709;DHT22;7445;50.774;4.944;2022-09-09T11:00:40;18.80;99.90
14709;DHT22;7445;50.774;4.944;2022-09-09T11:03:21;19.00;99.90
14709;DHT22;7445;50.774;4.944;2022-09-09T11:05:53;19.10;99.90
14709;DHT22;7445;50.774;4.944;2022-09-09T11:08:24;19.10;99.90
14709;DHT22;7445;50.774;4.944;2022-09-09T11:11:11;19.10;99.90
14709;DHT22;7445;50.774;4.944;2022-09-09T11:16:39;19.00;99.90
14709;DHT22;7445;50.774;4.944;2022-09-09T11:19:39;19.00;99.90
14709;DHT22;7445;50.774;4.944;2022-09-09T11:25:13;19.20;99.90
14709;DHT22;7445;50.774;4.944;2022-09-09T11:36:01;19.10;99.90
14709;DHT22;7445;50.774;4.944;2022-09-09T11:38:48;19.20;99.90
14709;DHT22;7445;50.774;4.944;2022-09-09T11:41:17;19.20;99.90
14709;DHT22;7445;50.774;4.944;2022-09-09T11:43:51;19.40;99.90
14709;DHT22;7445;50.774;4.944;2022-09-09T11:46:22;19.50;99.90
14709;DHT22;7445;50.774;4.944;2022-09-09T11:49:03;19.50;99.90
14709;DHT22;7445;50.774;4.944;2022-09-09T11:51:30;19.60;99.90
14709;DHT22;7445;50.774;4.944;2022-09-09T11:54:00;19.60;99.90
14709;DHT22;7445;50.774;4.944;2022-09-09T11:56:31;19.80;99.90
14709;DHT22;7445;50.774;4.944;2022-09-09T11:59:03;19.80;99.90
14709;DHT22;7445;50.774;4.944;2022-09-09T12:04:17;19.60;99.90
14709;DHT22;7445;50.774;4.944;2022-09-09T12:11:44;19.80;99.90
14709;DHT22;7445;50.774;4.944;2022-09-09T12:14:43;19.90;99.90
14709;DHT22;7445;50.774;4.944;2022-09-09T12:17:26;19.90;99.90
14709;DHT22;7445;50.774;4.944;2022-09-09T12:20:23;19.90;99.90
14709;DHT22;7445;50.774;4.944;2022-09-09T12:23:15;19.70;99.90
14709;DHT22;7445;50.774;4.944;2022-09-09T12:31:43;19.80;99.90
14709;DHT22;7445;50.774;4.944;2022-09-09T12:39:58;19.80;99.90
14709;DHT22;7445;50.774;4.944;2022-09-09T12:42:25;20.00;99.90
14709;DHT22;7445;50.774;4.944;2022-09-09T12:44:59;20.30;99.90
14709;DHT22;7445;50.774;4.944;2022-09-09T12:47:41;20.60;99.40
14709;DHT22;7445;50.774;4.944;2022-09-09T12:50:31;20.90;82.80
14709;DHT22;7445;50.774;4.944;2022-09-09T12:53:22;21.10;97.20
14709;DHT22;7445;50.774;4.944;2022-09-09T12:55:54;21.20;62.10
14709;DHT22;7445;50.774;4.944;2022-09-09T12:58:21;21.40;54.80
14709;DHT22;7445;50.774;4.944;2022-09-09T13:00:52;21.30;43.30
14709;DHT22;7445;50.774;4.944;2022-09-09T13:03:20;21.20;60.50
14709;DHT22;7445;50.774;4.944;2022-09-09T13:05:46;21.10;77.30
14709;DHT22;7445;50.774;4.944;2022-09-09T13:08:13;21.20;80.50
14709;DHT22;7445;50.774;4.944;2022-09-09T13:10:47;21.10;71.40
14709;DHT22;7445;50.774;4.944;2022-09-09T13:13:27;20.90;72.10
14709;DHT22;7445;50.774;4.944;2022-09-09T13:16:00;20.80;61.30
14709;DHT22;7445;50.774;4.944;2022-09-09T13:18:33;20.70;72.20
14709;DHT22;7445;50.774;4.944;2022-09-09T13:20:59;20.70;62.70
14709;DHT22;7445;50.774;4.944;2022-09-09T13:23:36;20.50;46.80
14709;DHT22;7445;50.774;4.944;2022-09-09T13:26:26;20.40;58.10
14709;DHT22;7445;50.774;4.944;2022-09-09T13:28:55;20.50;73.60
14709;DHT22;7445;50.774;4.944;2022-09-09T13:31:36;20.80;86.80
14709;DHT22;7445;50.774;4.944;2022-09-09T13:34:33;21.10;64.70
14709;DHT22;7445;50.774;4.944;2022-09-09T13:37:21;21.40;57.30
14709;DHT22;7445;50.774;4.944;2022-09-09T13:39:52;21.40;45.30
14709;DHT22;7445;50.774;4.944;2022-09-09T13:42:27;21.40;14.80
14709;DHT22;7445;50.774;4.944;2022-09-09T13:44:54;21.70;14.20
14709;DHT22;7445;50.774;4.944;2022-09-09T13:47:36;21.90;1.00
14709;DHT22;7445;50.774;4.944;2022-09-09T13:50:41;22.00;1.00
14709;DHT22;7445;50.774;4.944;2022-09-09T13:53:07;21.70;1.00
14709;DHT22;7445;50.774;4.944;2022-09-09T13:55:36;21.50;1.00
14709;DHT22;7445;50.774;4.944;2022-09-09T13:58:04;21.50;1.00
14709;DHT22;7445;50.774;4.944;2022-09-09T14:00:33;21.30;1.00
14709;DHT22;7445;50.774;4.944;2022-09-09T14:02:59;21.20;1.00
14709;DHT22;7445;50.774;4.944;2022-09-09T14:05:28;21.10;1.00
14709;DHT22;7445;50.774;4.944;2022-09-09T14:07:55;21.00;1.00
14709;DHT22;7445;50.774;4.944;2022-09-09T14:10:20;21.00;1.00
14709;DHT22;7445;50.774;4.944;2022-09-09T14:12:47;20.90;1.00
14709;DHT22;7445;50.774;4.944;2022-09-09T14:15:13;20.80;1.00
14709;DHT22;7445;50.774;4.944;2022-09-09T14:17:39;20.80;1.00
14709;DHT22;7445;50.774;4.944;2022-09-09T14:20:09;21.10;1.00
14709;DHT22;7445;50.774;4.944;2022-09-09T14:22:37;21.30;1.00
14709;DHT22;7445;50.774;4.944;2022-09-09T14:25:07;21.60;1.00
14709;DHT22;7445;50.774;4.944;2022-09-09T14:27:36;21.80;1.00
14709;DHT22;7445;50.774;4.944;2022-09-09T14:30:23;21.90;99.90
14709;DHT22;7445;50.774;4.944;2022-09-09T14:32:49;22.00;1.00
14709;DHT22;7445;50.774;4.944;2022-09-09T14:35:16;22.20;1.00
14709;DHT22;7445;50.774;4.944;2022-09-09T14:37:44;22.20;1.00
14709;DHT22;7445;50.774;4.944;2022-09-09T14:40:11;22.00;1.00
14709;DHT22;7445;50.774;4.944;2022-09-09T14:42:36;22.30;1.00
14709;DHT22;7445;50.774;4.944;2022-09-09T14:45:04;22.10;99.90
14709;DHT22;7445;50.774;4.944;2022-09-09T14:47:31;21.90;1.00
14709;DHT22;7445;50.774;4.944;2022-09-09T14:49:57;22.10;1.00
14709;DHT22;7445;50.774;4.944;2022-09-09T14:52:23;22.10;99.90
14709;DHT22;7445;50.774;4.944;2022-09-09T14:54:48;22.30;99.90
14709;DHT22;7445;50.774;4.944;2022-09-09T14:57:14;22.20;99.90
14709;DHT22;7445;50.774;4.944;2022-09-09T14:59:42;22.00;99.90
14709;DHT22;7445;50.774;4.944;2022-09-09T15:02:10;21.90;99.90
14709;DHT22;7445;50.774;4.944;2022-09-09T15:04:35;22.10;99.90
14709;DHT22;7445;50.774;4.944;2022-09-09T15:07:01;22.20;99.90
14709;DHT22;7445;50.774;4.944;2022-09-09T15:09:31;22.20;99.90
14709;DHT22;7445;50.774;4.944;2022-09-09T15:11:58;21.90;99.90
14709;DHT22;7445;50.774;4.944;2022-09-09T15:14:24;21.60;99.90
14709;DHT22;7445;50.774;4.944;2022-09-09T15:16:52;21.50;99.90
14709;DHT22;7445;50.774;4.944;2022-09-09T15:19:18;21.40;99.90
14709;DHT22;7445;50.774;4.944;2022-09-09T15:21:43;21.40;99.90
14709;DHT22;7445;50.774;4.944;2022-09-09T15:24:09;21.50;99.90
14709;DHT22;7445;50.774;4.944;2022-09-09T15:26:38;21.60;99.90
14709;DHT22;7445;50.774;4.944;2022-09-09T15:29:04;21.80;99.90
14709;DHT22;7445;50.774;4.944;2022-09-09T15:31:31;21.80;99.90
14709;DHT22;7445;50.774;4.944;2022-09-09T15:34:02;21.80;99.90
14709;DHT22;7445;50.774;4.944;2022-09-09T15:36:31;21.60;99.90
14709;DHT22;7445;50.774;4.944;2022-09-09T15:39:00;21.20;99.90
14709;DHT22;7445;50.774;4.944;2022-09-09T15:41:27;20.90;99.90
14709;DHT22;7445;50.774;4.944;2022-09-09T15:43:55;20.70;99.90
14709;DHT22;7445;50.774;4.944;2022-09-09T15:46:29;20.60;99.90
14709;DHT22;7445;50.774;4.944;2022-09-09T15:49:06;20.50;99.90
14709;DHT22;7445;50.774;4.944;2022-09-09T15:51:32;20.40;99.90
14709;DHT22;7445;50.774;4.944;2022-09-09T15:54:01;20.20;99.90
14709;DHT22;7445;50.774;4.944;2022-09-09T15:56:29;20.10;99.90
14709;DHT22;7445;50.774;4.944;2022-09-09T15:59:01;20.10;99.90
14709;DHT22;7445;50.774;4.944;2022-09-09T16:01:31;20.10;99.90
14709;DHT22;7445;50.774;4.944;2022-09-09T16:04:02;20.10;99.90
14709;DHT22;7445;50.774;4.944;2022-09-09T16:06:29;20.10;99.90
14709;DHT22;7445;50.774;4.944;2022-09-09T16:08:57;20.10;1.00
14709;DHT22;7445;50.774;4.944;2022-09-09T16:11:31;20.10;1.00
14709;DHT22;7445;50.774;4.944;2022-09-09T16:14:02;20.20;99.90
14709;DHT22;7445;50.774;4.944;2022-09-09T16:16:33;20.30;99.90
14709;DHT22;7445;50.774;4.944;2022-09-09T16:19:04;20.30;99.90
14709;DHT22;7445;50.774;4.944;2022-09-09T16:21:34;20.40;99.90
14709;DHT22;7445;50.774;4.944;2022-09-09T16:24:04;20.50;99.90
14709;DHT22;7445;50.774;4.944;2022-09-09T16:26:33;20.50;99.90
14709;DHT22;7445;50.774;4.944;2022-09-09T16:29:00;20.50;99.90
14709;DHT22;7445;50.774;4.944;2022-09-09T16:31:27;20.50;99.90
14709;DHT22;7445;50.774;4.944;2022-09-09T16:33:56;20.40;99.90
14709;DHT22;7445;50.774;4.944;2022-09-09T16:36:30;20.30;99.90
14709;DHT22;7445;50.774;4.944;2022-09-09T16:39:04;20.30;99.90
14709;DHT22;7445;50.774;4.944;2022-09-09T16:41:31;20.20;99.90
14709;DHT22;7445;50.774;4.944;2022-09-09T16:44:14;20.20;99.90
14709;DHT22;7445;50.774;4.944;2022-09-09T16:46:48;20.20;99.90
14709;DHT22;7445;50.774;4.944;2022-09-09T16:49:22;20.10;99.90
14709;DHT22;7445;50.774;4.944;2022-09-09T16:51:50;20.10;99.90
14709;DHT22;7445;50.774;4.944;2022-09-09T16:54:30;20.00;99.90
14709;DHT22;7445;50.774;4.944;2022-09-09T16:57:00;20.00;99.90
14709;DHT22;7445;50.774;4.944;2022-09-09T16:59:30;20.00;99.90
14709;DHT22;7445;50.774;4.944;2022-09-09T17:02:26;20.00;99.90
14709;DHT22;7445;50.774;4.944;2022-09-09T17:05:00;19.90;99.90
14709;DHT22;7445;50.774;4.944;2022-09-09T17:07:42;19.70;99.90
14709;DHT22;7445;50.774;4.944;2022-09-09T17:10:21;19.60;99.90
14709;DHT22;7445;50.774;4.944;2022-09-09T17:12:50;19.60;99.90
14709;DHT22;7445;50.774;4.944;2022-09-09T17:15:16;19.50;99.90
14709;DHT22;7445;50.774;4.944;2022-09-09T17:17:43;19.50;99.90
14709;DHT22;7445;50.774;4.944;2022-09-09T17:20:10;19.50;99.90
14709;DHT22;7445;50.774;4.944;2022-09-09T17:22:36;19.50;99.90
14709;DHT22;7445;50.774;4.944;2022-09-09T17:25:04;19.50;99.90
14709;DHT22;7445;50.774;4.944;2022-09-09T17:27:30;19.40;99.90
14709;DHT22;7445;50.774;4.944;2022-09-09T17:30:07;19.40;99.90
14709;DHT22;7445;50.774;4.944;2022-09-09T17:32:33;19.30;99.90
14709;DHT22;7445;50.774;4.944;2022-09-09T17:35:03;19.30;99.90
14709;DHT22;7445;50.774;4.944;2022-09-09T17:37:36;19.20;99.90
14709;DHT22;7445;50.774;4.944;2022-09-09T17:40:24;19.10;99.90
14709;DHT22;7445;50.774;4.944;2022-09-09T17:42:50;19.00;99.90
14709;DHT22;7445;50.774;4.944;2022-09-09T17:45:25;19.00;99.90
14709;DHT22;7445;50.774;4.944;2022-09-09T17:47:55;19.00;99.90
14709;DHT22;7445;50.774;4.944;2022-09-09T17:50:22;18.80;99.90
14709;DHT22;7445;50.774;4.944;2022-09-09T17:52:59;18.80;99.90
14709;DHT22;7445;50.774;4.944;2022-09-09T17:55:27;18.80;99.90
14709;DHT22;7445;50.774;4.944;2022-09-09T17:57:54;18.70;99.90
14709;DHT22;7445;50.774;4.944;2022-09-09T18:00:21;18.60;99.90
14709;DHT22;7445;50.774;4.944;2022-09-09T18:03:07;18.50;99.90
14709;DHT22;7445;50.774;4.944;2022-09-09T18:05:36;18.30;99.90
14709;DHT22;7445;50.774;4.944;2022-09-09T18:08:03;18.20;99.90
14709;DHT22;7445;50.774;4.944;2022-09-09T18:10:31;18.00;99.90
14709;DHT22;7445;50.774;4.944;2022-09-09T18:12:58;17.90;99.90
14709;DHT22;7445;50.774;4.944;2022-09-09T18:15:27;17.80;99.90
14709;DHT22;7445;50.774;4.944;2022-09-09T18:18:02;17.60;99.90
14709;DHT22;7445;50.774;4.944;2022-09-09T18:20:31;17.60;99.90
14709;DHT22;7445;50.774;4.944;2022-09-09T18:23:06;17.50;99.90
14709;DHT22;7445;50.774;4.944;2022-09-09T18:25:43;17.40;99.90
14709;DHT22;7445;50.774;4.944;2022-09-09T18:28:28;17.40;99.90
14709;DHT22;7445;50.774;4.944;2022-09-09T18:31:12;17.40;99.90
14709;DHT22;7445;50.774;4.944;2022-09-09T18:33:46;17.20;99.90
14709;DHT22;7445;50.774;4.944;2022-09-09T18:36:17;17.20;99.90
14709;DHT22;7445;50.774;4.944;2022-09-09T18:38:46;17.10;99.90
14709;DHT22;7445;50.774;4.944;2022-09-09T18:41:40;17.00;99.90
14709;DHT22;7445;50.774;4.944;2022-09-09T18:44:25;17.10;99.90
14709;DHT22;7445;50.774;4.944;2022-09-09T18:46:52;17.00;99.90
14709;DHT22;7445;50.774;4.944;2022-09-09T18:49:23;17.00;99.90
14709;DHT22;7445;50.774;4.944;2022-09-09T18:52:06;16.90;99.90
14709;DHT22;7445;50.774;4.944;2022-09-09T18:54:36;16.90;99.90
14709;DHT22;7445;50.774;4.944;2022-09-09T18:57:21;16.90;99.90
14709;DHT22;7445;50.774;4.944;2022-09-09T18:59:53;16.90;99.90
14709;DHT22;7445;50.774;4.944;2022-09-09T19:02:25;16.80;99.90
14709;DHT22;7445;50.774;4.944;2022-09-09T19:05:02;16.80;99.90
14709;DHT22;7445;50.774;4.944;2022-09-09T19:07:42;16.80;99.90
14709;DHT22;7445;50.774;4.944;2022-09-09T19:10:13;16.70;99.90
14709;DHT22;7445;50.774;4.944;2022-09-09T19:12:41;16.80;99.90
14709;DHT22;7445;50.774;4.944;2022-09-09T19:15:10;16.80;99.90
14709;DHT22;7445;50.774;4.944;2022-09-09T19:17:41;16.80;99.90
14709;DHT22;7445;50.774;4.944;2022-09-09T19:20:09;16.90;99.90
14709;DHT22;7445;50.774;4.944;2022-09-09T19:22:37;16.90;99.90
14709;DHT22;7445;50.774;4.944;2022-09-09T19:25:05;17.00;99.90
14709;DHT22;7445;50.774;4.944;2022-09-09T19:27:40;17.00;99.90
14709;DHT22;7445;50.774;4.944;2022-09-09T19:30:08;17.00;99.90
14709;DHT22;7445;50.774;4.944;2022-09-09T19:32:35;17.10;99.90
14709;DHT22;7445;50.774;4.944;2022-09-09T19:35:08;17.10;99.90
14709;DHT22;7445;50.774;4.944;2022-09-09T19:37:39;17.10;99.90
14709;DHT22;7445;50.774;4.944;2022-09-09T19:40:06;17.10;99.90
14709;DHT22;7445;50.774;4.944;2022-09-09T19:42:32;17.10;99.90
14709;DHT22;7445;50.774;4.944;2022-09-09T19:44:59;17.20;99.90
14709;DHT22;7445;50.774;4.944;2022-09-09T19:47:33;17.20;99.90
14709;DHT22;7445;50.774;4.944;2022-09-09T19:50:08;17.20;99.90
14709;DHT22;7445;50.774;4.944;2022-09-09T19:52:36;17.20;99.90
14709;DHT22;7445;50.774;4.944;2022-09-09T19:55:11;17.20;99.90
14709;DHT22;7445;50.774;4.944;2022-09-09T19:57:39;17.10;99.90
14709;DHT22;7445;50.774;4.944;2022-09-09T20:00:05;17.00;99.90
14709;DHT22;7445;50.774;4.944;2022-09-09T20:02:39;16.90;99.90
14709;DHT22;7445;50.774;4.944;2022-09-09T20:05:12;16.80;99.90
14709;DHT22;7445;50.774;4.944;2022-09-09T20:07:42;16.70;99.90
14709;DHT22;7445;50.774;4.944;2022-09-09T20:10:18;16.60;99.90
14709;DHT22;7445;50.774;4.944;2022-09-09T20:12:56;16.50;99.90
14709;DHT22;7445;50.774;4.944;2022-09-09T20:16:08;16.40;99.90
14709;DHT22;7445;50.774;4.944;2022-09-09T20:18:58;16.30;99.90
14709;DHT22;7445;50.774;4.944;2022-09-09T20:21:38;16.30;99.90
14709;DHT22;7445;50.774;4.944;2022-09-09T20:24:07;16.20;99.90
14709;DHT22;7445;50.774;4.944;2022-09-09T20:26:36;16.20;99.90
14709;DHT22;7445;50.774;4.944;2022-09-09T20:29:06;16.10;99.90
14709;DHT22;7445;50.774;4.944;2022-09-09T20:31:35;16.10;99.90
14709;DHT22;7445;50.774;4.944;2022-09-09T20:34:15;16.10;99.90
14709;DHT22;7445;50.774;4.944;2022-09-09T20:36:41;16.10;99.90
14709;DHT22;7445;50.774;4.944;2022-09-09T20:39:13;16.10;99.90
14709;DHT22;7445;50.774;4.944;2022-09-09T20:41:44;16.00;99.90
14709;DHT22;7445;50.774;4.944;2022-09-09T20:44:19;16.00;99.90
14709;DHT22;7445;50.774;4.944;2022-09-09T20:46:51;16.00;99.90
14709;DHT22;7445;50.774;4.944;2022-09-09T20:49:19;16.00;99.90
14709;DHT22;7445;50.774;4.944;2022-09-09T20:51:47;16.00;99.90
14709;DHT22;7445;50.774;4.944;2022-09-09T20:54:17;16.10;99.90
14709;DHT22;7445;50.774;4.944;2022-09-09T20:56:44;16.00;99.90
14709;DHT22;7445;50.774;4.944;2022-09-09T20:59:12;15.90;99.90
14709;DHT22;7445;50.774;4.944;2022-09-09T21:01:39;15.90;99.90
14709;DHT22;7445;50.774;4.944;2022-09-09T21:04:08;15.90;99.90
14709;DHT22;7445;50.774;4.944;2022-09-09T21:06:35;15.90;99.90
14709;DHT22;7445;50.774;4.944;2022-09-09T21:09:07;15.90;99.90
14709;DHT22;7445;50.774;4.944;2022-09-09T21:12:01;15.90;99.90
14709;DHT22;7445;50.774;4.944;2022-09-09T21:14:40;15.90;99.90
14709;DHT22;7445;50.774;4.944;2022-09-09T21:17:13;15.90;99.90
14709;DHT22;7445;50.774;4.944;2022-09-09T21:20:28;15.90;99.90
14709;DHT22;7445;50.774;4.944;2022-09-09T21:23:11;15.90;99.90
14709;DHT22;7445;50.774;4.944;2022-09-09T21:26:07;15.90;99.90
14709;DHT22;7445;50.774;4.944;2022-09-09T21:28:58;15.90;99.90
14709;DHT22;7445;50.774;4.944;2022-09-09T21:36:58;15.90;99.90
14709;DHT22;7445;50.774;4.944;2022-09-09T21:45:28;15.90;99.90
14709;DHT22;7445;50.774;4.944;2022-09-09T23:23:38;16.00;99.90
14709;DHT22;7445;50.774;4.944;2022-09-09T23:26:07;16.10;99.90
14709;DHT22;7445;50.774;4.944;2022-09-09T23:28:34;16.10;99.90
14709;DHT22;7445;50.774;4.944;2022-09-09T23:31:12;16.10;99.90
14709;DHT22;7445;50.774;4.944;2022-09-09T23:33:39;16.10;99.90
14709;DHT22;7445;50.774;4.944;2022-09-09T23:36:07;16.00;99.90
14709;DHT22;7445;50.774;4.944;2022-09-09T23:38:34;16.00;99.90
14709;DHT22;7445;50.774;4.944;2022-09-09T23:41:03;15.90;99.90
14709;DHT22;7445;50.774;4.944;2022-09-09T23:43:29;15.90;99.90
14709;DHT22;7445;50.774;4.944;2022-09-09T23:45:55;15.80;99.90
14709;DHT22;7445;50.774;4.944;2022-09-09T23:48:22;15.80;99.90
14709;DHT22;7445;50.774;4.944;2022-09-09T23:50:49;15.80;99.90
14709;DHT22;7445;50.774;4.944;2022-09-09T23:53:15;15.80;99.90
14709;DHT22;7445;50.774;4.944;2022-09-09T23:55:42;15.80;99.90
14709;DHT22;7445;50.774;4.944;2022-09-09T23:58:08;15.90;99.90
